Terminal Aerodrome Forecast
Issued by NWS Corpus Christi, TX

Home | Current Version | Previous Version | Text Only | Print | Product List | Glossary On
Versions: 1 2 3 4 5 6 7 8 9 10 11 12 13 14
942
FTUS44 KCRP 270529
TAFVCT
TAF
KVCT 270529Z 2706/2806 35009KT P6SM OVC011
      TEMPO 2708/2712 OVC008
     FM271600 01007KT P6SM VCSH BKN030 OVC100
      TEMPO 2718/2722 6SM SHRA OVC025
     FM280100 35004KT P6SM SCT040=

USA.gov is the U.S. government's official web portal to all federal, state and local government web resources and services.